sensor_id;sensor_type;location;lat;lon;timestamp;temperature;humidity
26503;DHT22;14177;51.520;6.764;2023-05-07T00:00:03;16.30;99.90
26503;DHT22;14177;51.520;6.764;2023-05-07T00:02:34;16.30;99.90
26503;DHT22;14177;51.520;6.764;2023-05-07T00:05:02;16.30;99.90
26503;DHT22;14177;51.520;6.764;2023-05-07T00:07:30;16.20;99.90
26503;DHT22;14177;51.520;6.764;2023-05-07T00:09:57;16.20;99.90
26503;DHT22;14177;51.520;6.764;2023-05-07T00:12:24;16.20;99.90
26503;DHT22;14177;51.520;6.764;2023-05-07T00:14:52;16.20;99.90
26503;DHT22;14177;51.520;6.764;2023-05-07T00:17:19;16.20;99.90
26503;DHT22;14177;51.520;6.764;2023-05-07T00:19:46;16.20;99.90
26503;DHT22;14177;51.520;6.764;2023-05-07T00:22:13;16.20;99.90
26503;DHT22;14177;51.520;6.764;2023-05-07T00:24:40;16.10;99.90
26503;DHT22;14177;51.520;6.764;2023-05-07T00:27:07;16.10;99.90
26503;DHT22;14177;51.520;6.764;2023-05-07T00:29:33;16.10;99.90
26503;DHT22;14177;51.520;6.764;2023-05-07T00:32:00;16.00;99.90
26503;DHT22;14177;51.520;6.764;2023-05-07T00:34:28;16.00;99.90
26503;DHT22;14177;51.520;6.764;2023-05-07T00:36:54;16.00;99.90
26503;DHT22;14177;51.520;6.764;2023-05-07T00:39:21;16.00;99.90
26503;DHT22;14177;51.520;6.764;2023-05-07T00:41:48;16.00;99.90
26503;DHT22;14177;51.520;6.764;2023-05-07T00:44:15;16.00;99.90
26503;DHT22;14177;51.520;6.764;2023-05-07T00:46:42;15.90;99.90
26503;DHT22;14177;51.520;6.764;2023-05-07T00:49:09;15.90;99.90
26503;DHT22;14177;51.520;6.764;2023-05-07T00:51:37;15.90;99.90
26503;DHT22;14177;51.520;6.764;2023-05-07T00:54:04;16.00;99.90
26503;DHT22;14177;51.520;6.764;2023-05-07T00:56:32;15.90;99.90
26503;DHT22;14177;51.520;6.764;2023-05-07T00:59:01;15.90;99.90
26503;DHT22;14177;51.520;6.764;2023-05-07T01:01:29;15.90;99.90
26503;DHT22;14177;51.520;6.764;2023-05-07T01:03:56;15.90;99.90
26503;DHT22;14177;51.520;6.764;2023-05-07T01:06:26;15.90;99.90
26503;DHT22;14177;51.520;6.764;2023-05-07T01:08:55;15.90;99.90
26503;DHT22;14177;51.520;6.764;2023-05-07T01:11:25;15.90;99.90
26503;DHT22;14177;51.520;6.764;2023-05-07T01:13:54;15.90;99.90
26503;DHT22;14177;51.520;6.764;2023-05-07T01:16:26;15.80;99.90
26503;DHT22;14177;51.520;6.764;2023-05-07T01:18:58;15.80;99.90
26503;DHT22;14177;51.520;6.764;2023-05-07T01:21:32;15.80;99.90
26503;DHT22;14177;51.520;6.764;2023-05-07T01:24:06;15.80;99.90
26503;DHT22;14177;51.520;6.764;2023-05-07T01:26:39;15.80;99.90
26503;DHT22;14177;51.520;6.764;2023-05-07T01:29:08;15.80;99.90
26503;DHT22;14177;51.520;6.764;2023-05-07T01:31:37;15.80;99.90
26503;DHT22;14177;51.520;6.764;2023-05-07T01:34:08;15.80;99.90
26503;DHT22;14177;51.520;6.764;2023-05-07T01:36:38;15.80;99.90
26503;DHT22;14177;51.520;6.764;2023-05-07T01:39:13;15.80;99.90
26503;DHT22;14177;51.520;6.764;2023-05-07T01:41:43;15.80;99.90
26503;DHT22;14177;51.520;6.764;2023-05-07T01:44:19;15.80;99.90
26503;DHT22;14177;51.520;6.764;2023-05-07T01:46:51;15.80;99.90
26503;DHT22;14177;51.520;6.764;2023-05-07T01:49:21;15.70;99.90
26503;DHT22;14177;51.520;6.764;2023-05-07T01:51:48;15.70;99.90
26503;DHT22;14177;51.520;6.764;2023-05-07T01:54:15;15.70;99.90
26503;DHT22;14177;51.520;6.764;2023-05-07T01:56:43;15.70;99.90
26503;DHT22;14177;51.520;6.764;2023-05-07T01:59:10;15.70;99.90
26503;DHT22;14177;51.520;6.764;2023-05-07T02:01:37;15.70;99.90
26503;DHT22;14177;51.520;6.764;2023-05-07T02:04:05;15.70;99.90
26503;DHT22;14177;51.520;6.764;2023-05-07T02:06:32;15.60;99.90
26503;DHT22;14177;51.520;6.764;2023-05-07T02:09:03;15.70;99.90
26503;DHT22;14177;51.520;6.764;2023-05-07T02:11:30;15.70;99.90
26503;DHT22;14177;51.520;6.764;2023-05-07T02:13:57;15.60;99.90
26503;DHT22;14177;51.520;6.764;2023-05-07T02:16:24;15.60;99.90
26503;DHT22;14177;51.520;6.764;2023-05-07T02:18:52;15.60;99.90
26503;DHT22;14177;51.520;6.764;2023-05-07T02:21:19;15.60;99.90
26503;DHT22;14177;51.520;6.764;2023-05-07T02:23:46;15.60;99.90
26503;DHT22;14177;51.520;6.764;2023-05-07T02:26:13;15.50;99.90
26503;DHT22;14177;51.520;6.764;2023-05-07T02:28:40;15.60;99.90
26503;DHT22;14177;51.520;6.764;2023-05-07T02:31:07;15.50;99.90
26503;DHT22;14177;51.520;6.764;2023-05-07T02:33:34;15.50;99.90
26503;DHT22;14177;51.520;6.764;2023-05-07T02:36:11;15.50;99.90
26503;DHT22;14177;51.520;6.764;2023-05-07T02:38:44;15.50;99.90
26503;DHT22;14177;51.520;6.764;2023-05-07T02:41:11;15.50;99.90
26503;DHT22;14177;51.520;6.764;2023-05-07T02:43:38;15.50;99.90
26503;DHT22;14177;51.520;6.764;2023-05-07T02:46:07;15.50;99.90
26503;DHT22;14177;51.520;6.764;2023-05-07T02:48:38;15.40;99.90
26503;DHT22;14177;51.520;6.764;2023-05-07T02:51:05;15.40;99.90
26503;DHT22;14177;51.520;6.764;2023-05-07T02:53:34;15.40;99.90
26503;DHT22;14177;51.520;6.764;2023-05-07T02:56:01;15.40;99.90
26503;DHT22;14177;51.520;6.764;2023-05-07T02:58:28;15.40;99.90
26503;DHT22;14177;51.520;6.764;2023-05-07T03:00:57;15.40;99.90
26503;DHT22;14177;51.520;6.764;2023-05-07T03:03:35;15.40;99.90
26503;DHT22;14177;51.520;6.764;2023-05-07T03:06:03;15.40;99.90
26503;DHT22;14177;51.520;6.764;2023-05-07T03:08:30;15.30;99.90
26503;DHT22;14177;51.520;6.764;2023-05-07T03:10:59;15.30;99.90
26503;DHT22;14177;51.520;6.764;2023-05-07T03:13:26;15.30;99.90
26503;DHT22;14177;51.520;6.764;2023-05-07T03:15:53;15.30;99.90
26503;DHT22;14177;51.520;6.764;2023-05-07T03:18:21;15.30;99.90
26503;DHT22;14177;51.520;6.764;2023-05-07T03:20:48;15.20;99.90
26503;DHT22;14177;51.520;6.764;2023-05-07T03:23:16;15.30;99.90
26503;DHT22;14177;51.520;6.764;2023-05-07T03:25:43;15.30;99.90
26503;DHT22;14177;51.520;6.764;2023-05-07T03:28:10;15.20;99.90
26503;DHT22;14177;51.520;6.764;2023-05-07T03:30:43;15.20;99.90
26503;DHT22;14177;51.520;6.764;2023-05-07T03:33:10;15.20;99.90
26503;DHT22;14177;51.520;6.764;2023-05-07T03:35:37;15.20;99.90
26503;DHT22;14177;51.520;6.764;2023-05-07T03:38:04;15.20;99.90
26503;DHT22;14177;51.520;6.764;2023-05-07T03:40:34;15.20;99.90
26503;DHT22;14177;51.520;6.764;2023-05-07T03:43:03;15.20;99.90
26503;DHT22;14177;51.520;6.764;2023-05-07T03:45:31;15.20;99.90
26503;DHT22;14177;51.520;6.764;2023-05-07T03:48:21;15.10;99.90
26503;DHT22;14177;51.520;6.764;2023-05-07T03:50:50;15.20;99.90
26503;DHT22;14177;51.520;6.764;2023-05-07T03:53:18;15.10;99.90
26503;DHT22;14177;51.520;6.764;2023-05-07T03:55:45;15.10;99.90
26503;DHT22;14177;51.520;6.764;2023-05-07T03:58:12;15.10;99.90
26503;DHT22;14177;51.520;6.764;2023-05-07T04:00:39;15.10;99.90
26503;DHT22;14177;51.520;6.764;2023-05-07T04:03:41;15.10;99.90
26503;DHT22;14177;51.520;6.764;2023-05-07T04:06:32;15.10;99.90
26503;DHT22;14177;51.520;6.764;2023-05-07T04:09:12;15.10;99.90
26503;DHT22;14177;51.520;6.764;2023-05-07T04:11:46;15.00;99.90
26503;DHT22;14177;51.520;6.764;2023-05-07T04:14:22;15.00;99.90
26503;DHT22;14177;51.520;6.764;2023-05-07T04:16:58;15.00;99.90
26503;DHT22;14177;51.520;6.764;2023-05-07T04:19:35;15.00;99.90
26503;DHT22;14177;51.520;6.764;2023-05-07T04:22:16;15.00;99.90
26503;DHT22;14177;51.520;6.764;2023-05-07T04:24:47;15.00;99.90
26503;DHT22;14177;51.520;6.764;2023-05-07T04:27:20;15.00;99.90
26503;DHT22;14177;51.520;6.764;2023-05-07T04:29:51;15.00;99.90
26503;DHT22;14177;51.520;6.764;2023-05-07T04:32:29;15.10;99.90
26503;DHT22;14177;51.520;6.764;2023-05-07T04:35:10;15.00;99.90
26503;DHT22;14177;51.520;6.764;2023-05-07T04:37:51;15.00;99.90
26503;DHT22;14177;51.520;6.764;2023-05-07T04:40:29;15.10;99.90
26503;DHT22;14177;51.520;6.764;2023-05-07T04:43:19;15.10;99.90
26503;DHT22;14177;51.520;6.764;2023-05-07T04:45:59;15.10;99.90
26503;DHT22;14177;51.520;6.764;2023-05-07T04:48:37;15.10;99.90
26503;DHT22;14177;51.520;6.764;2023-05-07T04:51:20;15.10;99.90
26503;DHT22;14177;51.520;6.764;2023-05-07T04:54:02;15.10;99.90
26503;DHT22;14177;51.520;6.764;2023-05-07T04:56:53;15.10;99.90
26503;DHT22;14177;51.520;6.764;2023-05-07T04:59:35;15.10;99.90
26503;DHT22;14177;51.520;6.764;2023-05-07T05:02:10;15.10;99.90
26503;DHT22;14177;51.520;6.764;2023-05-07T05:04:45;15.00;99.90
26503;DHT22;14177;51.520;6.764;2023-05-07T05:07:18;15.10;99.90
26503;DHT22;14177;51.520;6.764;2023-05-07T05:09:50;15.00;99.90
26503;DHT22;14177;51.520;6.764;2023-05-07T05:12:24;15.00;99.90
26503;DHT22;14177;51.520;6.764;2023-05-07T05:15:04;15.00;99.90
26503;DHT22;14177;51.520;6.764;2023-05-07T05:17:52;15.10;99.90
26503;DHT22;14177;51.520;6.764;2023-05-07T05:20:20;15.10;99.90
26503;DHT22;14177;51.520;6.764;2023-05-07T05:22:59;15.10;99.90
26503;DHT22;14177;51.520;6.764;2023-05-07T05:25:26;15.10;99.90
26503;DHT22;14177;51.520;6.764;2023-05-07T05:27:56;15.10;99.90
26503;DHT22;14177;51.520;6.764;2023-05-07T05:30:23;15.20;99.90
26503;DHT22;14177;51.520;6.764;2023-05-07T05:32:51;15.20;99.90
26503;DHT22;14177;51.520;6.764;2023-05-07T05:35:18;15.20;99.90
26503;DHT22;14177;51.520;6.764;2023-05-07T05:37:45;15.30;99.90
26503;DHT22;14177;51.520;6.764;2023-05-07T05:40:13;15.30;99.90
26503;DHT22;14177;51.520;6.764;2023-05-07T05:42:40;15.40;99.90
26503;DHT22;14177;51.520;6.764;2023-05-07T05:45:09;15.50;99.90
26503;DHT22;14177;51.520;6.764;2023-05-07T05:47:37;15.50;99.90
26503;DHT22;14177;51.520;6.764;2023-05-07T05:50:07;15.60;99.90
26503;DHT22;14177;51.520;6.764;2023-05-07T05:52:35;15.60;99.90
26503;DHT22;14177;51.520;6.764;2023-05-07T05:55:02;15.70;99.90
26503;DHT22;14177;51.520;6.764;2023-05-07T05:57:29;15.80;99.90
26503;DHT22;14177;51.520;6.764;2023-05-07T05:59:57;15.90;99.90
26503;DHT22;14177;51.520;6.764;2023-05-07T06:02:24;15.90;99.90
26503;DHT22;14177;51.520;6.764;2023-05-07T06:04:52;16.00;99.90
26503;DHT22;14177;51.520;6.764;2023-05-07T06:07:21;16.10;99.90
26503;DHT22;14177;51.520;6.764;2023-05-07T06:09:48;16.10;99.90
26503;DHT22;14177;51.520;6.764;2023-05-07T06:12:15;16.20;99.90
26503;DHT22;14177;51.520;6.764;2023-05-07T06:14:45;16.30;99.90
26503;DHT22;14177;51.520;6.764;2023-05-07T06:17:12;16.40;99.90
26503;DHT22;14177;51.520;6.764;2023-05-07T06:19:39;16.50;99.90
26503;DHT22;14177;51.520;6.764;2023-05-07T06:22:07;16.60;99.90
26503;DHT22;14177;51.520;6.764;2023-05-07T06:24:34;16.60;99.90
26503;DHT22;14177;51.520;6.764;2023-05-07T06:27:04;16.70;99.90
26503;DHT22;14177;51.520;6.764;2023-05-07T06:29:31;16.70;99.90
26503;DHT22;14177;51.520;6.764;2023-05-07T06:32:12;16.70;99.90
26503;DHT22;14177;51.520;6.764;2023-05-07T06:34:42;16.80;99.90
26503;DHT22;14177;51.520;6.764;2023-05-07T06:37:09;16.80;99.90
26503;DHT22;14177;51.520;6.764;2023-05-07T06:39:47;16.90;99.90
26503;DHT22;14177;51.520;6.764;2023-05-07T06:42:15;17.00;99.90
26503;DHT22;14177;51.520;6.764;2023-05-07T06:44:45;17.00;99.90
26503;DHT22;14177;51.520;6.764;2023-05-07T06:47:15;17.10;99.90
26503;DHT22;14177;51.520;6.764;2023-05-07T06:49:44;17.20;99.90
26503;DHT22;14177;51.520;6.764;2023-05-07T06:52:15;17.30;99.90
26503;DHT22;14177;51.520;6.764;2023-05-07T06:54:42;17.50;99.90
26503;DHT22;14177;51.520;6.764;2023-05-07T06:57:10;17.60;99.90
26503;DHT22;14177;51.520;6.764;2023-05-07T06:59:37;17.70;99.90
26503;DHT22;14177;51.520;6.764;2023-05-07T07:02:04;17.70;99.90
26503;DHT22;14177;51.520;6.764;2023-05-07T07:04:30;17.80;99.90
26503;DHT22;14177;51.520;6.764;2023-05-07T07:07:03;17.80;99.90
26503;DHT22;14177;51.520;6.764;2023-05-07T07:09:30;17.80;99.90
26503;DHT22;14177;51.520;6.764;2023-05-07T07:11:59;17.90;99.90
26503;DHT22;14177;51.520;6.764;2023-05-07T07:14:27;17.80;99.90
26503;DHT22;14177;51.520;6.764;2023-05-07T07:17:00;17.90;99.90
26503;DHT22;14177;51.520;6.764;2023-05-07T07:19:35;18.00;99.90
26503;DHT22;14177;51.520;6.764;2023-05-07T07:22:03;18.00;99.90
26503;DHT22;14177;51.520;6.764;2023-05-07T07:24:31;18.10;99.90
26503;DHT22;14177;51.520;6.764;2023-05-07T07:27:01;18.10;99.90
26503;DHT22;14177;51.520;6.764;2023-05-07T07:29:28;18.20;99.90
26503;DHT22;14177;51.520;6.764;2023-05-07T07:31:56;18.30;99.90
26503;DHT22;14177;51.520;6.764;2023-05-07T07:34:23;18.40;99.90
26503;DHT22;14177;51.520;6.764;2023-05-07T07:36:50;18.50;99.90
26503;DHT22;14177;51.520;6.764;2023-05-07T07:39:18;18.60;99.90
26503;DHT22;14177;51.520;6.764;2023-05-07T07:41:48;18.70;99.90
26503;DHT22;14177;51.520;6.764;2023-05-07T07:44:16;18.90;99.90
26503;DHT22;14177;51.520;6.764;2023-05-07T07:46:49;19.00;99.90
26503;DHT22;14177;51.520;6.764;2023-05-07T07:49:18;19.20;99.90
26503;DHT22;14177;51.520;6.764;2023-05-07T07:51:45;19.30;99.90
26503;DHT22;14177;51.520;6.764;2023-05-07T07:54:13;19.30;99.90
26503;DHT22;14177;51.520;6.764;2023-05-07T07:56:40;19.30;99.90
26503;DHT22;14177;51.520;6.764;2023-05-07T07:59:08;19.30;99.90
26503;DHT22;14177;51.520;6.764;2023-05-07T08:01:38;19.40;99.90
26503;DHT22;14177;51.520;6.764;2023-05-07T08:04:05;19.60;99.90
26503;DHT22;14177;51.520;6.764;2023-05-07T08:06:36;19.80;99.90
26503;DHT22;14177;51.520;6.764;2023-05-07T08:09:04;20.10;99.90
26503;DHT22;14177;51.520;6.764;2023-05-07T08:11:32;20.20;99.90
26503;DHT22;14177;51.520;6.764;2023-05-07T08:13:59;20.40;99.90
26503;DHT22;14177;51.520;6.764;2023-05-07T08:16:26;20.50;99.90
26503;DHT22;14177;51.520;6.764;2023-05-07T08:18:53;20.70;99.90
26503;DHT22;14177;51.520;6.764;2023-05-07T08:21:21;20.80;99.90
26503;DHT22;14177;51.520;6.764;2023-05-07T08:23:49;20.80;99.90
26503;DHT22;14177;51.520;6.764;2023-05-07T08:26:16;20.80;99.90
26503;DHT22;14177;51.520;6.764;2023-05-07T08:28:43;20.70;99.90
26503;DHT22;14177;51.520;6.764;2023-05-07T08:31:10;20.70;99.90
26503;DHT22;14177;51.520;6.764;2023-05-07T08:33:39;20.60;99.90
26503;DHT22;14177;51.520;6.764;2023-05-07T08:36:06;20.60;99.90
26503;DHT22;14177;51.520;6.764;2023-05-07T08:38:34;20.50;99.90
26503;DHT22;14177;51.520;6.764;2023-05-07T08:41:01;20.50;99.90
26503;DHT22;14177;51.520;6.764;2023-05-07T08:43:32;20.50;99.90
26503;DHT22;14177;51.520;6.764;2023-05-07T08:46:03;20.50;99.90
26503;DHT22;14177;51.520;6.764;2023-05-07T08:48:36;20.60;99.90
26503;DHT22;14177;51.520;6.764;2023-05-07T08:51:11;20.60;99.90
26503;DHT22;14177;51.520;6.764;2023-05-07T08:53:41;20.70;99.90
26503;DHT22;14177;51.520;6.764;2023-05-07T08:56:12;20.80;99.90
26503;DHT22;14177;51.520;6.764;2023-05-07T08:58:39;20.90;99.90
26503;DHT22;14177;51.520;6.764;2023-05-07T09:01:12;20.90;99.90
26503;DHT22;14177;51.520;6.764;2023-05-07T09:03:44;21.00;99.90
26503;DHT22;14177;51.520;6.764;2023-05-07T09:06:14;21.20;99.90
26503;DHT22;14177;51.520;6.764;2023-05-07T09:08:48;21.50;99.90
26503;DHT22;14177;51.520;6.764;2023-05-07T09:11:22;21.80;99.90
26503;DHT22;14177;51.520;6.764;2023-05-07T09:13:56;22.20;99.90
26503;DHT22;14177;51.520;6.764;2023-05-07T09:16:25;22.60;99.90
26503;DHT22;14177;51.520;6.764;2023-05-07T09:18:54;22.70;99.90
26503;DHT22;14177;51.520;6.764;2023-05-07T09:21:22;22.80;99.90
26503;DHT22;14177;51.520;6.764;2023-05-07T09:23:52;23.10;99.90
26503;DHT22;14177;51.520;6.764;2023-05-07T09:26:25;23.30;99.90
26503;DHT22;14177;51.520;6.764;2023-05-07T09:28:52;23.50;99.90
26503;DHT22;14177;51.520;6.764;2023-05-07T09:31:20;23.60;99.90
26503;DHT22;14177;51.520;6.764;2023-05-07T09:33:48;23.80;99.90
26503;DHT22;14177;51.520;6.764;2023-05-07T09:36:18;24.20;99.90
26503;DHT22;14177;51.520;6.764;2023-05-07T09:38:45;24.50;99.90
26503;DHT22;14177;51.520;6.764;2023-05-07T09:41:13;24.80;99.60
26503;DHT22;14177;51.520;6.764;2023-05-07T09:43:56;25.00;97.60
26503;DHT22;14177;51.520;6.764;2023-05-07T09:46:30;25.00;95.80
26503;DHT22;14177;51.520;6.764;2023-05-07T09:49:06;24.90;92.70
26503;DHT22;14177;51.520;6.764;2023-05-07T09:51:48;24.90;95.50
26503;DHT22;14177;51.520;6.764;2023-05-07T09:54:18;25.00;96.90
26503;DHT22;14177;51.520;6.764;2023-05-07T09:56:49;25.30;96.10
26503;DHT22;14177;51.520;6.764;2023-05-07T09:59:18;25.50;94.60
26503;DHT22;14177;51.520;6.764;2023-05-07T10:01:49;25.50;90.80
26503;DHT22;14177;51.520;6.764;2023-05-07T10:04:19;25.70;88.30
26503;DHT22;14177;51.520;6.764;2023-05-07T10:06:48;25.50;89.80
26503;DHT22;14177;51.520;6.764;2023-05-07T10:09:15;25.40;85.80
26503;DHT22;14177;51.520;6.764;2023-05-07T10:11:43;25.10;87.30
26503;DHT22;14177;51.520;6.764;2023-05-07T10:14:11;25.00;89.50
26503;DHT22;14177;51.520;6.764;2023-05-07T10:16:41;25.00;90.60
26503;DHT22;14177;51.520;6.764;2023-05-07T10:19:14;25.10;91.20
26503;DHT22;14177;51.520;6.764;2023-05-07T10:22:05;25.40;91.00
26503;DHT22;14177;51.520;6.764;2023-05-07T10:24:38;25.60;88.80
26503;DHT22;14177;51.520;6.764;2023-05-07T10:27:12;25.80;82.70
26503;DHT22;14177;51.520;6.764;2023-05-07T10:30:14;26.00;82.90
26503;DHT22;14177;51.520;6.764;2023-05-07T10:32:46;26.20;76.60
26503;DHT22;14177;51.520;6.764;2023-05-07T10:35:26;25.90;76.30
26503;DHT22;14177;51.520;6.764;2023-05-07T10:38:00;25.80;76.10
26503;DHT22;14177;51.520;6.764;2023-05-07T10:40:33;25.70;76.90
26503;DHT22;14177;51.520;6.764;2023-05-07T10:43:03;25.70;75.60
26503;DHT22;14177;51.520;6.764;2023-05-07T10:45:40;25.70;74.70
26503;DHT22;14177;51.520;6.764;2023-05-07T10:48:12;25.70;75.90
26503;DHT22;14177;51.520;6.764;2023-05-07T10:51:20;25.60;74.90
26503;DHT22;14177;51.520;6.764;2023-05-07T10:56:49;25.70;73.30
26503;DHT22;14177;51.520;6.764;2023-05-07T11:02:05;25.30;71.60
26503;DHT22;14177;51.520;6.764;2023-05-07T11:08:12;24.90;75.10
26503;DHT22;14177;51.520;6.764;2023-05-07T11:10:53;24.90;73.90
26503;DHT22;14177;51.520;6.764;2023-05-07T11:13:47;24.80;74.80
26503;DHT22;14177;51.520;6.764;2023-05-07T11:16:32;24.90;76.60
26503;DHT22;14177;51.520;6.764;2023-05-07T11:22:55;25.30;75.00
26503;DHT22;14177;51.520;6.764;2023-05-07T11:25:32;25.50;74.10
26503;DHT22;14177;51.520;6.764;2023-05-07T11:28:10;25.70;74.60
26503;DHT22;14177;51.520;6.764;2023-05-07T11:30:56;26.00;72.30
26503;DHT22;14177;51.520;6.764;2023-05-07T11:33:24;26.30;68.70
26503;DHT22;14177;51.520;6.764;2023-05-07T11:35:56;26.60;67.60
26503;DHT22;14177;51.520;6.764;2023-05-07T11:38:34;26.60;68.80
26503;DHT22;14177;51.520;6.764;2023-05-07T11:41:02;26.70;68.70
26503;DHT22;14177;51.520;6.764;2023-05-07T11:43:32;26.90;68.10
26503;DHT22;14177;51.520;6.764;2023-05-07T11:46:09;27.00;68.00
26503;DHT22;14177;51.520;6.764;2023-05-07T11:48:38;27.20;66.60
26503;DHT22;14177;51.520;6.764;2023-05-07T11:51:06;27.20;64.90
26503;DHT22;14177;51.520;6.764;2023-05-07T11:53:41;27.20;65.40
26503;DHT22;14177;51.520;6.764;2023-05-07T11:56:10;27.00;64.60
26503;DHT22;14177;51.520;6.764;2023-05-07T11:58:40;26.70;65.70
26503;DHT22;14177;51.520;6.764;2023-05-07T12:01:10;26.60;65.70
26503;DHT22;14177;51.520;6.764;2023-05-07T12:03:40;26.50;65.40
26503;DHT22;14177;51.520;6.764;2023-05-07T12:06:13;26.40;65.10
26503;DHT22;14177;51.520;6.764;2023-05-07T12:08:41;26.30;64.80
26503;DHT22;14177;51.520;6.764;2023-05-07T12:11:15;26.20;66.10
26503;DHT22;14177;51.520;6.764;2023-05-07T12:13:44;26.30;65.90
26503;DHT22;14177;51.520;6.764;2023-05-07T12:16:11;26.30;66.20
26503;DHT22;14177;51.520;6.764;2023-05-07T12:18:39;26.40;64.90
26503;DHT22;14177;51.520;6.764;2023-05-07T12:21:06;26.40;65.10
26503;DHT22;14177;51.520;6.764;2023-05-07T12:23:35;26.20;64.80
26503;DHT22;14177;51.520;6.764;2023-05-07T12:26:03;26.00;65.30
26503;DHT22;14177;51.520;6.764;2023-05-07T12:28:38;25.80;65.80
26503;DHT22;14177;51.520;6.764;2023-05-07T12:31:06;25.60;65.80
26503;DHT22;14177;51.520;6.764;2023-05-07T12:33:35;25.50;67.70
26503;DHT22;14177;51.520;6.764;2023-05-07T12:36:06;25.40;67.10
26503;DHT22;14177;51.520;6.764;2023-05-07T12:38:36;25.30;67.10
26503;DHT22;14177;51.520;6.764;2023-05-07T12:41:08;25.20;67.20
26503;DHT22;14177;51.520;6.764;2023-05-07T12:43:36;25.10;67.70
26503;DHT22;14177;51.520;6.764;2023-05-07T12:46:06;24.90;68.80
26503;DHT22;14177;51.520;6.764;2023-05-07T12:48:36;24.80;69.50
26503;DHT22;14177;51.520;6.764;2023-05-07T12:51:05;24.90;69.80
26503;DHT22;14177;51.520;6.764;2023-05-07T12:53:39;24.70;69.50
26503;DHT22;14177;51.520;6.764;2023-05-07T12:56:10;24.60;69.30
26503;DHT22;14177;51.520;6.764;2023-05-07T12:58:38;24.50;70.80
26503;DHT22;14177;51.520;6.764;2023-05-07T13:01:06;24.50;72.00
26503;DHT22;14177;51.520;6.764;2023-05-07T13:03:36;24.50;71.50
26503;DHT22;14177;51.520;6.764;2023-05-07T13:06:07;24.50;71.90
26503;DHT22;14177;51.520;6.764;2023-05-07T13:08:41;24.50;71.90
26503;DHT22;14177;51.520;6.764;2023-05-07T13:11:12;24.50;71.70
26503;DHT22;14177;51.520;6.764;2023-05-07T13:13:40;24.40;71.80
26503;DHT22;14177;51.520;6.764;2023-05-07T13:16:10;24.50;73.20
26503;DHT22;14177;51.520;6.764;2023-05-07T13:18:39;24.50;71.80
26503;DHT22;14177;51.520;6.764;2023-05-07T13:21:07;24.50;73.10
26503;DHT22;14177;51.520;6.764;2023-05-07T13:23:34;24.50;74.30
26503;DHT22;14177;51.520;6.764;2023-05-07T13:26:01;24.50;74.80
26503;DHT22;14177;51.520;6.764;2023-05-07T13:28:37;24.50;76.20
26503;DHT22;14177;51.520;6.764;2023-05-07T13:31:04;24.40;73.50
26503;DHT22;14177;51.520;6.764;2023-05-07T13:33:31;24.40;73.60
26503;DHT22;14177;51.520;6.764;2023-05-07T13:35:58;24.40;73.90
26503;DHT22;14177;51.520;6.764;2023-05-07T13:38:27;24.30;75.80
26503;DHT22;14177;51.520;6.764;2023-05-07T13:40:54;24.20;78.30
26503;DHT22;14177;51.520;6.764;2023-05-07T13:43:20;24.10;80.30
26503;DHT22;14177;51.520;6.764;2023-05-07T13:45:47;23.90;82.10
26503;DHT22;14177;51.520;6.764;2023-05-07T13:48:14;23.80;83.30
26503;DHT22;14177;51.520;6.764;2023-05-07T13:50:41;23.70;84.60
26503;DHT22;14177;51.520;6.764;2023-05-07T13:53:08;23.60;86.20
26503;DHT22;14177;51.520;6.764;2023-05-07T13:55:35;23.50;87.60
26503;DHT22;14177;51.520;6.764;2023-05-07T13:58:02;23.30;89.10
26503;DHT22;14177;51.520;6.764;2023-05-07T14:00:32;23.10;90.70
26503;DHT22;14177;51.520;6.764;2023-05-07T14:02:59;23.00;92.00
26503;DHT22;14177;51.520;6.764;2023-05-07T14:05:27;22.90;92.40
26503;DHT22;14177;51.520;6.764;2023-05-07T14:07:56;22.70;93.10
26503;DHT22;14177;51.520;6.764;2023-05-07T14:10:24;22.50;94.90
26503;DHT22;14177;51.520;6.764;2023-05-07T14:12:51;22.20;97.10
26503;DHT22;14177;51.520;6.764;2023-05-07T14:15:19;22.10;99.20
26503;DHT22;14177;51.520;6.764;2023-05-07T14:17:55;21.90;99.90
26503;DHT22;14177;51.520;6.764;2023-05-07T14:20:24;21.70;99.90
26503;DHT22;14177;51.520;6.764;2023-05-07T14:22:51;21.70;99.90
26503;DHT22;14177;51.520;6.764;2023-05-07T14:25:18;21.60;99.90
26503;DHT22;14177;51.520;6.764;2023-05-07T14:27:49;21.50;99.90
26503;DHT22;14177;51.520;6.764;2023-05-07T14:30:16;21.40;99.90
26503;DHT22;14177;51.520;6.764;2023-05-07T14:32:43;21.30;99.90
26503;DHT22;14177;51.520;6.764;2023-05-07T14:35:10;21.20;99.90
26503;DHT22;14177;51.520;6.764;2023-05-07T14:37:38;21.10;99.90
26503;DHT22;14177;51.520;6.764;2023-05-07T14:40:05;20.90;99.90
26503;DHT22;14177;51.520;6.764;2023-05-07T14:42:33;20.80;99.90
26503;DHT22;14177;51.520;6.764;2023-05-07T14:44:59;20.70;99.90
26503;DHT22;14177;51.520;6.764;2023-05-07T14:47:26;20.70;99.90
26503;DHT22;14177;51.520;6.764;2023-05-07T14:49:54;20.70;99.90
26503;DHT22;14177;51.520;6.764;2023-05-07T14:52:21;20.70;99.90
26503;DHT22;14177;51.520;6.764;2023-05-07T14:54:48;20.70;99.90
26503;DHT22;14177;51.520;6.764;2023-05-07T14:57:15;20.80;99.90
26503;DHT22;14177;51.520;6.764;2023-05-07T14:59:45;20.80;99.90
26503;DHT22;14177;51.520;6.764;2023-05-07T15:02:13;20.80;99.90
26503;DHT22;14177;51.520;6.764;2023-05-07T15:04:40;20.80;99.90
26503;DHT22;14177;51.520;6.764;2023-05-07T15:07:13;20.70;99.90
26503;DHT22;14177;51.520;6.764;2023-05-07T15:09:42;20.70;99.90
26503;DHT22;14177;51.520;6.764;2023-05-07T15:12:09;20.70;99.90
26503;DHT22;14177;51.520;6.764;2023-05-07T15:14:38;20.60;99.90
26503;DHT22;14177;51.520;6.764;2023-05-07T15:17:05;20.60;99.90
26503;DHT22;14177;51.520;6.764;2023-05-07T15:19:33;20.70;99.90
26503;DHT22;14177;51.520;6.764;2023-05-07T15:22:00;20.70;99.90
26503;DHT22;14177;51.520;6.764;2023-05-07T15:24:30;20.80;99.90
26503;DHT22;14177;51.520;6.764;2023-05-07T15:26:58;20.80;99.90
26503;DHT22;14177;51.520;6.764;2023-05-07T15:29:25;20.90;99.90
26503;DHT22;14177;51.520;6.764;2023-05-07T15:31:51;20.90;99.90
26503;DHT22;14177;51.520;6.764;2023-05-07T15:34:19;20.90;99.90
26503;DHT22;14177;51.520;6.764;2023-05-07T15:36:46;20.90;99.90
26503;DHT22;14177;51.520;6.764;2023-05-07T15:39:12;20.80;99.90
26503;DHT22;14177;51.520;6.764;2023-05-07T15:41:39;20.90;99.90
26503;DHT22;14177;51.520;6.764;2023-05-07T15:44:07;20.90;99.90
26503;DHT22;14177;51.520;6.764;2023-05-07T15:46:34;20.90;99.90
26503;DHT22;14177;51.520;6.764;2023-05-07T15:49:02;21.00;99.90
26503;DHT22;14177;51.520;6.764;2023-05-07T15:51:34;21.10;99.90
26503;DHT22;14177;51.520;6.764;2023-05-07T15:54:01;21.20;99.90
26503;DHT22;14177;51.520;6.764;2023-05-07T15:56:29;21.20;99.90
26503;DHT22;14177;51.520;6.764;2023-05-07T15:58:59;21.30;99.90
26503;DHT22;14177;51.520;6.764;2023-05-07T16:01:26;21.30;99.90